RJOO/ITM METAR and TAF weather

Enter ICAO airport designator
Station Type Date Time Source
RJOO METAR 2021/10/22 11:00 UTC NOAA

RJOO 221100Z 32006KT 270V350 9999 FEW020 SCT070 BKN090 15/10 Q1014


Station Type Date Time Source
RJOO Decoded METAR 2021/10/22 11:00 UTC NOAA

Osaka International Airport, Japan (RJOO) 34-47N 135-27E 15M
Oct 22, 2021 - 07:00 AM EDT / 2021.10.22 1100 UTC
Wind: from the NW (320 degrees) at 7 MPH (6 KT) (direction variable):0
Visibility: greater than 7 mile(s):0
Sky conditions: mostly cloudy
Temperature: 59 F (15 C)
Dew Point: 50 F (10 C)
Relative Humidity: 72%
Pressure (altimeter): 29.94 in. Hg (1014 hPa)
ob: RJOO 221100Z 32006KT 270V350 9999 FEW020 SCT070 BKN090 15/10 Q1014
cycle: 11

Station Type Date Time Source
RJOO TAF 2021/10/22 18:30 UTC NOAA

TAF RJOO 221705Z 2218/2400 31006KT 9999 FEW025 BKN045

Example: see airport list